Terminal Aerodrome Forecast
Issued by NWS Memphis, TN

Home | Current Version | Previous Version | Text Only | Print | Product List | Glossary On
Versions: 1 2 3 4 5 6 7 8 9 10 11 12 13 14 15 16 17 18 19 20 21 22 23 24 25 26 27 28 29 30 31 32 33 34 35 36
000
FTUS44 KMEG 231216 AAA
TAFMEM
TAF AMD
KMEM 231216Z 2312/2412 34008KT P6SM -SHRA FEW008 BKN013 BKN035
     FM231500 36012G18KT P6SM BKN025 OVC045
     FM231800 36014G20KT P6SM OVC035
     FM232100 36014G20KT P6SM BKN045
     FM240100 01006KT P6SM SKC=

USA.gov is the U.S. government's official web portal to all federal, state and local government web resources and services.